createdAt,value
2023-04-11T00:00:50.567Z,100936.43
2023-04-11T00:03:30.246Z,100934.67
2023-04-11T00:06:11.244Z,100929.50
2023-04-11T00:08:51.092Z,100925.48
2023-04-11T00:11:32.277Z,100922.84
2023-04-11T00:14:09.941Z,100924.96
2023-04-11T00:16:50.161Z,100915.84
2023-04-11T00:19:30.154Z,100915.53
2023-04-11T00:22:10.472Z,100908.28
2023-04-11T00:24:50.864Z,100902.74
2023-04-11T00:27:22.044Z,100898.98
2023-04-11T00:30:01.718Z,100899.02
2023-04-11T00:32:41.199Z,100899.50
2023-04-11T00:35:20.634Z,100898.14
2023-04-11T00:38:02.513Z,100899.95
2023-04-11T00:40:42.343Z,100901.95
2023-04-11T00:43:21.967Z,100901.52
2023-04-11T00:45:59.910Z,100895.55
2023-04-11T00:48:41.590Z,100892.48
2023-04-11T00:51:24.037Z,100884.89
2023-04-11T00:54:03.421Z,100881.95
2023-04-11T00:56:43.184Z,100876.41
2023-04-11T00:59:22.465Z,100872.39
2023-04-11T01:02:02.222Z,100871.05
2023-04-11T01:04:41.576Z,100874.64
2023-04-11T01:07:22.056Z,100876.71
2023-04-11T01:10:02.432Z,100876.79
2023-04-11T01:12:33.748Z,100874.83
2023-04-11T01:15:14.942Z,100875.63
2023-04-11T01:17:55.785Z,100874.96
2023-04-11T01:20:35.099Z,100871.35
2023-04-11T01:23:16.725Z,100867.61
2023-04-11T01:25:56.157Z,100868.47
2023-04-11T01:28:34.720Z,100864.26
2023-04-11T01:31:07.378Z,100863.69
2023-04-11T01:33:47.870Z,100857.23
2023-04-11T01:36:27.388Z,100857.43
2023-04-11T01:39:07.757Z,100861.67
2023-04-11T01:41:48.230Z,100860.98
2023-04-11T01:44:29.111Z,100856.64
2023-04-11T01:47:10.531Z,100855.13
2023-04-11T01:49:51.019Z,100850.73
2023-04-11T01:52:29.959Z,100838.73
2023-04-11T01:55:00.196Z,100842.91
2023-04-11T01:57:32.338Z,100840.10
2023-04-11T02:00:12.005Z,100837.92
2023-04-11T02:02:51.984Z,100835.33
2023-04-11T02:05:31.656Z,100832.55
2023-04-11T02:08:12.541Z,100827.52
2023-04-11T02:10:51.806Z,100824.69
2023-04-11T02:13:32.153Z,100825.21
2023-04-11T02:16:24.695Z,100819.50
2023-04-11T02:18:54.970Z,100815.98
2023-04-11T02:21:32.494Z,100813.98
2023-04-11T02:24:02.637Z,100809.11
2023-04-11T02:26:43.319Z,100809.61
2023-04-11T02:29:22.999Z,100808.52
2023-04-11T02:32:02.300Z,100805.27
2023-04-11T02:34:41.840Z,100808.83
2023-04-11T02:37:22.124Z,100810.84
2023-04-11T02:40:01.562Z,100810.74
2023-04-11T02:42:37.531Z,100810.60
2023-04-11T02:45:17.699Z,100815.19
2023-04-11T02:47:57.301Z,100809.29
2023-04-11T02:50:36.629Z,100809.08
2023-04-11T02:53:16.813Z,100808.83
2023-04-11T02:55:56.143Z,100803.77
2023-04-11T02:58:39.512Z,100805.42
2023-04-11T03:01:19.216Z,100801.41
2023-04-11T03:03:58.505Z,100798.98
2023-04-11T03:06:37.969Z,100795.69
2023-04-11T03:09:17.496Z,100794.61
2023-04-11T03:11:47.916Z,100790.66
2023-04-11T03:14:19.371Z,100785.70
2023-04-11T03:16:54.511Z,100782.73
2023-04-11T03:19:34.092Z,100776.61
2023-04-11T03:22:12.075Z,100778.84
2023-04-11T03:24:52.185Z,100778.12
2023-04-11T03:27:32.062Z,100773.43
2023-04-11T03:30:13.238Z,100770.91
2023-04-11T03:32:54.918Z,100768.84
2023-04-11T03:35:34.315Z,100770.45
2023-04-11T03:38:14.164Z,100764.58
2023-04-11T03:40:51.600Z,100765.32
2023-04-11T03:43:31.820Z,100763.84
2023-04-11T03:46:11.640Z,100761.43
2023-04-11T03:48:50.428Z,100763.88
2023-04-11T03:51:29.146Z,100763.81
2023-04-11T03:53:59.886Z,100757.29
2023-04-11T03:56:38.973Z,100769.83
2023-04-11T03:59:18.198Z,100766.96
2023-04-11T04:01:56.767Z,100768.94
2023-04-11T04:04:36.906Z,100769.19
2023-04-11T04:07:18.463Z,100767.10
2023-04-11T04:09:57.069Z,100765.15
2023-04-11T04:12:35.881Z,100766.67
2023-04-11T04:15:15.083Z,100763.23
2023-04-11T04:17:54.319Z,100762.36
2023-04-11T04:20:33.158Z,100764.54
2023-04-11T04:23:14.352Z,100762.26
2023-04-11T04:25:53.506Z,100756.80
2023-04-11T04:28:23.996Z,100756.90
2023-04-11T04:30:58.770Z,100748.13
2023-04-11T04:33:36.799Z,100755.67
2023-04-11T04:36:18.331Z,100760.01
2023-04-11T04:39:02.411Z,100757.31
2023-04-11T04:41:35.006Z,100760.02
2023-04-11T04:44:16.318Z,100754.39
2023-04-11T04:46:57.023Z,100754.98
2023-04-11T04:49:35.629Z,100753.50
2023-04-11T04:52:15.868Z,100750.80
2023-04-11T04:54:58.266Z,100752.07
2023-04-11T04:57:37.001Z,100748.91
2023-04-11T05:00:17.331Z,100750.02
2023-04-11T05:02:57.174Z,100748.02
2023-04-11T05:05:36.838Z,100748.96
2023-04-11T05:08:17.521Z,100749.07
2023-04-11T05:10:47.907Z,100754.18
2023-04-11T05:13:27.466Z,100755.88
2023-04-11T05:16:07.191Z,100752.55
2023-04-11T05:18:46.744Z,100752.99
2023-04-11T05:21:27.063Z,100749.71
2023-04-11T05:24:06.197Z,100749.92
2023-04-11T05:26:44.664Z,100739.81
2023-04-11T05:29:15.977Z,100738.99
2023-04-11T05:31:55.548Z,100726.14
2023-04-11T05:34:52.342Z,100721.54
2023-04-11T05:37:32.684Z,100720.90
2023-04-11T05:40:13.377Z,100718.48
2023-04-11T05:42:51.809Z,100713.15
2023-04-11T05:45:30.559Z,100712.71
2023-04-11T05:48:10.697Z,100706.59
2023-04-11T05:50:49.379Z,100705.79
2023-04-11T05:53:28.007Z,100700.31
2023-04-11T05:55:59.288Z,100688.05
2023-04-11T05:58:38.525Z,100683.33
2023-04-11T06:01:18.842Z,100679.69
2023-04-11T06:03:58.037Z,100674.15
2023-04-11T06:06:37.330Z,100666.91
2023-04-11T06:09:15.842Z,100659.89
2023-04-11T06:11:53.940Z,100659.30
2023-04-11T06:14:24.193Z,100649.58
2023-04-11T06:17:00.323Z,100640.36
2023-04-11T06:19:39.501Z,100631.19
2023-04-11T06:22:18.092Z,100637.09
2023-04-11T06:24:57.953Z,100636.37
2023-04-11T06:27:28.441Z,100633.73
2023-04-11T06:30:07.840Z,100633.64
2023-04-11T06:32:38.556Z,100630.34
2023-04-11T06:35:20.865Z,100632.16
2023-04-11T06:37:58.968Z,100632.37
2023-04-11T06:40:30.414Z,100625.18
2023-04-11T06:43:02.389Z,100621.04
2023-04-11T06:45:40.613Z,100624.44
2023-04-11T06:48:18.734Z,100620.56
2023-04-11T06:50:56.693Z,100622.39
2023-04-11T06:53:35.688Z,100616.83
2023-04-11T06:56:14.869Z,100617.96
2023-04-11T06:58:53.994Z,100618.08
2023-04-11T07:01:41.152Z,100609.95
2023-04-11T07:04:20.257Z,100603.88
2023-04-11T07:06:59.658Z,100600.94
2023-04-11T07:09:38.132Z,100602.09
2023-04-11T07:12:16.895Z,100594.43
2023-04-11T07:14:55.238Z,100588.30
2023-04-11T07:17:26.557Z,100586.27
2023-04-11T07:20:09.772Z,100584.95
2023-04-11T07:22:52.633Z,100577.05
2023-04-11T07:25:33.980Z,100573.01
2023-04-11T07:28:13.244Z,100567.56
2023-04-11T07:30:52.885Z,100566.77
2023-04-11T07:33:23.484Z,100564.02
2023-04-11T07:36:03.931Z,100562.88
2023-04-11T07:38:34.939Z,100556.27
2023-04-11T07:41:06.710Z,100551.06
2023-04-11T07:43:45.136Z,100547.29
2023-04-11T07:46:22.425Z,100548.69
2023-04-11T07:49:01.341Z,100542.98
2023-04-11T07:51:40.193Z,100539.06
2023-04-11T07:54:19.988Z,100536.89
2023-04-11T07:56:59.558Z,100531.79
2023-04-11T07:59:38.283Z,100530.77
2023-04-11T08:02:17.681Z,100525.27
2023-04-11T08:04:48.892Z,100523.58
2023-04-11T08:07:28.967Z,100520.16
2023-04-11T08:10:07.830Z,100519.10
2023-04-11T08:12:39.098Z,100515.61
2023-04-11T08:15:19.546Z,100509.89
2023-04-11T08:18:00.037Z,100504.63
2023-04-11T08:20:30.557Z,100501.25
2023-04-11T08:23:10.184Z,100504.92
2023-04-11T08:25:44.269Z,100501.17
2023-04-11T08:28:23.623Z,100497.32
2023-04-11T08:31:05.454Z,100492.76
2023-04-11T08:33:44.742Z,100495.23
2023-04-11T08:36:24.344Z,100493.12
2023-04-11T08:39:02.876Z,100490.33
2023-04-11T08:41:39.825Z,100486.08
2023-04-11T08:44:19.731Z,100480.44
2023-04-11T08:46:58.632Z,100475.86
2023-04-11T08:49:37.448Z,100464.52
2023-04-11T08:52:15.896Z,100470.89
2023-04-11T08:54:59.322Z,100454.58
2023-04-11T08:57:38.568Z,100453.10
2023-04-11T09:00:19.474Z,100445.15
2023-04-11T09:03:11.243Z,100444.58
2023-04-11T09:05:47.798Z,100436.73
2023-04-11T09:08:40.460Z,100444.19
2023-04-11T09:11:12.281Z,100436.77
2023-04-11T09:13:46.347Z,100438.48
2023-04-11T09:16:25.888Z,100432.61
2023-04-11T09:19:04.128Z,100423.08
2023-04-11T09:21:50.605Z,100412.86
2023-04-11T09:24:35.181Z,100411.71
2023-04-11T09:27:22.486Z,100409.46
2023-04-11T09:29:55.816Z,100398.15
2023-04-11T09:32:33.364Z,100394.44
2023-04-11T09:35:26.635Z,100391.73
2023-04-11T09:38:10.038Z,100380.92
2023-04-11T09:40:53.317Z,100381.00
2023-04-11T09:43:53.549Z,100380.63
2023-04-11T09:46:26.817Z,100370.05
2023-04-11T09:49:07.115Z,100357.67
2023-04-11T09:51:47.154Z,100357.78
2023-04-11T09:54:27.745Z,100344.94
2023-04-11T09:57:07.021Z,100343.45
2023-04-11T09:59:47.247Z,100341.55
2023-04-11T10:02:24.761Z,100339.17
2023-04-11T10:05:06.140Z,100334.40
2023-04-11T10:07:52.979Z,100325.42
2023-04-11T10:10:28.365Z,100319.53
2023-04-11T10:13:26.293Z,100309.31
2023-04-11T10:16:24.650Z,100311.61
2023-04-11T10:19:02.264Z,100314.91
2023-04-11T10:21:43.576Z,100310.70
2023-04-11T10:24:24.333Z,100307.55
2023-04-11T10:27:04.543Z,100306.53
2023-04-11T10:29:51.572Z,100305.98
2023-04-11T10:32:29.017Z,100312.35
2023-04-11T10:35:25.434Z,100309.55
2023-04-11T10:38:04.516Z,100303.30
2023-04-11T10:40:37.637Z,100301.02
2023-04-11T10:43:29.808Z,100292.06
2023-04-11T10:46:29.342Z,100287.13
2023-04-11T10:49:08.594Z,100288.73
2023-04-11T10:51:48.628Z,100283.62
2023-04-11T10:54:29.140Z,100273.83
2023-04-11T10:57:08.385Z,100280.22
2023-04-11T10:59:39.035Z,100283.59
2023-04-11T11:02:22.327Z,100278.17
2023-04-11T11:05:02.163Z,100279.39
2023-04-11T11:07:43.072Z,100273.92
2023-04-11T11:10:15.620Z,100270.80
2023-04-11T11:13:01.932Z,100269.14
2023-04-11T11:15:41.661Z,100273.06
2023-04-11T11:18:20.837Z,100266.55
2023-04-11T11:21:02.175Z,100266.33
2023-04-11T11:23:40.679Z,100264.91
2023-04-11T11:26:20.435Z,100257.23
2023-04-11T11:29:00.525Z,100257.95
2023-04-11T11:31:50.893Z,100256.67
2023-04-11T11:34:33.601Z,100252.30
2023-04-11T11:37:10.255Z,100249.59
2023-04-11T11:39:50.550Z,100245.80
2023-04-11T11:42:29.847Z,100238.50
2023-04-11T11:45:17.904Z,100234.41
2023-04-11T11:47:51.907Z,100239.38
2023-04-11T11:50:32.618Z,100235.27
2023-04-11T11:53:17.055Z,100236.92
2023-04-11T11:55:53.380Z,100237.73
2023-04-11T11:58:46.977Z,100231.38
2023-04-11T12:01:19.762Z,100231.28
2023-04-11T12:03:54.304Z,100229.71
2023-04-11T12:06:34.444Z,100225.63
2023-04-11T12:09:14.076Z,100226.61
2023-04-11T12:11:56.493Z,100219.79
2023-04-11T12:14:31.592Z,100214.41
2023-04-11T12:17:11.754Z,100219.77
2023-04-11T12:19:50.234Z,100212.25
2023-04-11T12:22:28.390Z,100216.58
2023-04-11T12:25:13.751Z,100214.41
2023-04-11T12:27:51.717Z,100207.84
2023-04-11T12:30:30.908Z,100200.00
2023-04-11T12:33:10.588Z,100199.59
2023-04-11T12:35:49.355Z,100196.66
2023-04-11T12:38:28.057Z,100191.72
2023-04-11T12:41:30.336Z,100184.19
2023-04-11T12:44:02.759Z,100182.47
2023-04-11T12:46:34.458Z,100173.84
2023-04-11T12:49:12.214Z,100175.40
2023-04-11T12:51:42.749Z,100176.04
2023-04-11T12:54:22.309Z,100168.27
2023-04-11T12:57:00.728Z,100177.21
2023-04-11T12:59:39.582Z,100166.96
2023-04-11T13:02:19.075Z,100161.72
2023-04-11T13:05:00.557Z,100161.35
2023-04-11T13:07:41.319Z,100157.20
2023-04-11T13:10:20.198Z,100157.56
2023-04-11T13:13:00.620Z,100154.63
2023-04-11T13:15:47.096Z,100150.23
2023-04-11T13:18:26.167Z,100147.00
2023-04-11T13:21:06.156Z,100141.04
2023-04-11T13:23:44.851Z,100131.49
2023-04-11T13:26:24.058Z,100128.95
2023-04-11T13:28:54.450Z,100120.96
2023-04-11T13:31:34.913Z,100121.27
2023-04-11T13:34:14.189Z,100124.90
2023-04-11T13:36:53.415Z,100125.67
2023-04-11T13:39:32.970Z,100120.96
2023-04-11T13:42:12.638Z,100117.32
2023-04-11T13:44:43.283Z,100110.89
2023-04-11T13:47:15.038Z,100109.05
2023-04-11T13:49:47.469Z,100104.98
2023-04-11T13:52:27.629Z,100095.37
2023-04-11T13:55:07.511Z,100091.98
2023-04-11T13:57:46.506Z,100090.41
2023-04-11T14:00:25.595Z,100089.86
2023-04-11T14:03:04.523Z,100088.17
2023-04-11T14:05:43.706Z,100086.66
2023-04-11T14:08:22.693Z,100084.61
2023-04-11T14:11:01.733Z,100082.98
2023-04-11T14:13:40.973Z,100080.73
2023-04-11T14:16:20.862Z,100080.80
2023-04-11T14:19:00.364Z,100075.01
2023-04-11T14:21:38.705Z,100073.86
2023-04-11T14:24:20.120Z,100073.91
2023-04-11T14:26:59.749Z,100070.30
2023-04-11T14:29:37.909Z,100073.21
2023-04-11T14:32:16.513Z,100072.21
2023-04-11T14:34:54.305Z,100067.27
2023-04-11T14:37:33.535Z,100066.05
2023-04-11T14:40:12.446Z,100062.50
2023-04-11T14:42:51.575Z,100065.38
2023-04-11T14:45:30.427Z,100061.91
2023-04-11T14:48:00.865Z,100056.29
2023-04-11T14:50:35.778Z,100053.61
2023-04-11T14:53:13.989Z,100051.73
2023-04-11T14:55:52.465Z,100047.38
2023-04-11T14:58:30.909Z,100042.27
2023-04-11T15:01:02.372Z,100039.67
2023-04-11T15:03:41.275Z,100039.68
2023-04-11T15:06:19.659Z,100043.04
2023-04-11T15:08:58.776Z,100043.61
2023-04-11T15:11:36.600Z,100043.20
2023-04-11T15:14:14.639Z,100036.91
2023-04-11T15:16:52.811Z,100034.56
2023-04-11T15:19:31.237Z,100033.84
2023-04-11T15:22:11.553Z,100038.02
2023-04-11T15:24:49.786Z,100034.52
2023-04-11T15:27:20.169Z,100027.10
2023-04-11T15:30:00.341Z,100028.30
2023-04-11T15:32:36.503Z,100029.35
2023-04-11T15:35:15.150Z,100017.98
2023-04-11T15:37:52.772Z,100014.98
2023-04-11T15:40:30.944Z,100017.29
2023-04-11T15:43:11.096Z,100013.45
2023-04-11T15:45:46.652Z,100012.65
2023-04-11T15:48:23.967Z,100007.84
2023-04-11T15:51:01.479Z,100004.48
2023-04-11T15:53:38.806Z,100000.44
2023-04-11T15:56:17.666Z,100000.27
2023-04-11T15:58:56.007Z,99999.63
2023-04-11T16:01:33.190Z,99999.30
2023-04-11T16:04:11.645Z,99997.60
2023-04-11T16:06:42.405Z,99997.35
2023-04-11T16:09:19.188Z,99997.75
2023-04-11T16:11:58.030Z,99996.14
2023-04-11T16:14:38.449Z,99993.50
2023-04-11T16:17:18.307Z,99989.86
2023-04-11T16:19:57.830Z,99989.78
2023-04-11T16:22:36.120Z,99989.04
2023-04-11T16:25:16.579Z,99988.36
2023-04-11T16:27:55.077Z,99994.48
2023-04-11T16:30:28.471Z,99988.00
2023-04-11T16:33:10.301Z,99983.15
2023-04-11T16:35:49.329Z,99979.73
2023-04-11T16:38:27.480Z,99975.75
2023-04-11T16:41:02.721Z,99973.87
2023-04-11T16:43:43.795Z,99975.13
2023-04-11T16:46:23.684Z,99975.69
2023-04-11T16:48:55.534Z,99976.23
2023-04-11T16:51:36.966Z,99978.17
2023-04-11T16:54:15.074Z,99980.64
2023-04-11T16:56:53.938Z,99981.84
2023-04-11T16:59:36.318Z,99978.05
2023-04-11T17:02:16.738Z,99969.94
2023-04-11T17:04:55.828Z,99969.98
2023-04-11T17:07:35.270Z,99969.55
2023-04-11T17:10:13.912Z,99963.93
2023-04-11T17:12:44.892Z,99966.71
2023-04-11T17:15:22.058Z,99965.12
2023-04-11T17:18:00.349Z,99964.48
2023-04-11T17:20:38.906Z,99964.35
2023-04-11T17:23:16.646Z,99964.03
2023-04-11T17:26:00.071Z,99963.77
2023-04-11T17:28:38.906Z,99962.88
2023-04-11T17:31:21.092Z,99962.94
2023-04-11T17:34:00.294Z,99965.26
2023-04-11T17:36:43.245Z,99960.45
2023-04-11T17:39:23.005Z,99961.98
2023-04-11T17:42:01.268Z,99965.05
2023-04-11T17:44:41.418Z,99967.92
2023-04-11T17:47:20.883Z,99967.60
2023-04-11T17:50:00.156Z,99972.58
2023-04-11T17:52:41.104Z,99970.16
2023-04-11T17:55:21.525Z,99971.00
2023-04-11T17:58:01.617Z,99970.60
2023-04-11T18:00:55.001Z,99970.53
2023-04-11T18:03:40.502Z,99971.63
2023-04-11T18:06:20.147Z,99971.22
2023-04-11T18:09:00.001Z,99968.20
2023-04-11T18:11:42.518Z,99969.34
2023-04-11T18:14:22.848Z,99972.17
2023-04-11T18:17:02.520Z,99972.86
2023-04-11T18:19:42.222Z,99973.35
2023-04-11T18:22:22.039Z,99977.61
2023-04-11T18:25:02.537Z,99979.09
2023-04-11T18:27:42.664Z,99984.56
2023-04-11T18:30:21.852Z,99985.22
2023-04-11T18:33:01.074Z,99986.98
2023-04-11T18:35:40.148Z,99989.21
2023-04-11T18:38:19.380Z,99992.16
2023-04-11T18:40:54.514Z,99990.16
2023-04-11T18:43:26.956Z,99995.79
2023-04-11T18:46:03.715Z,99995.65
2023-04-11T18:48:42.418Z,99994.74
2023-04-11T18:51:22.378Z,99994.34
2023-04-11T18:54:00.964Z,99991.35
2023-04-11T18:56:40.527Z,99992.50
2023-04-11T18:59:24.927Z,99986.80
2023-04-11T19:02:03.436Z,99987.49
2023-04-11T19:04:44.154Z,99992.00
2023-04-11T19:07:22.690Z,99989.20
2023-04-11T19:10:00.956Z,99989.89
2023-04-11T19:12:39.492Z,99987.89
2023-04-11T19:15:18.445Z,99984.60
2023-04-11T19:17:59.107Z,99983.71
2023-04-11T19:20:38.822Z,99982.05
2023-04-11T19:23:16.030Z,99981.34
2023-04-11T19:25:55.094Z,99979.77
2023-04-11T19:28:32.590Z,99979.36
2023-04-11T19:31:10.951Z,99987.20
2023-04-11T19:33:49.034Z,99983.42
2023-04-11T19:36:26.985Z,99979.96
2023-04-11T19:39:05.196Z,99981.31
2023-04-11T19:41:47.895Z,99986.42
2023-04-11T19:44:18.594Z,99984.39
2023-04-11T19:46:51.934Z,99984.64
2023-04-11T19:49:25.238Z,99981.11
2023-04-11T19:52:03.966Z,99982.03
2023-04-11T19:54:41.849Z,99984.29
2023-04-11T19:57:19.830Z,99983.48
2023-04-11T19:59:58.901Z,99987.88
2023-04-11T20:02:37.964Z,99991.29
2023-04-11T20:05:20.195Z,99996.08
2023-04-11T20:07:58.598Z,100000.48
2023-04-11T20:10:37.125Z,100000.77
2023-04-11T20:13:14.953Z,99999.44
2023-04-11T20:15:52.917Z,100000.88
2023-04-11T20:18:30.861Z,99997.50
2023-04-11T20:21:08.356Z,99994.70
2023-04-11T20:23:45.756Z,99992.33
2023-04-11T20:26:22.760Z,99994.36
2023-04-11T20:29:00.948Z,99994.90
2023-04-11T20:31:31.752Z,99997.90
2023-04-11T20:34:09.274Z,99996.67
2023-04-11T20:36:48.765Z,99990.92
2023-04-11T20:39:26.283Z,99989.85
2023-04-11T20:42:04.546Z,99984.40
2023-04-11T20:44:37.211Z,99987.96
2023-04-11T20:47:17.844Z,99989.76
2023-04-11T20:49:56.484Z,99991.24
2023-04-11T20:52:30.235Z,99991.45
2023-04-11T20:55:09.053Z,99992.63
2023-04-11T20:57:46.801Z,99987.87
2023-04-11T21:00:20.294Z,99986.30
2023-04-11T21:02:52.011Z,99984.38
2023-04-11T21:05:27.393Z,99985.45
2023-04-11T21:08:07.178Z,99984.01
2023-04-11T21:10:45.574Z,99986.16
2023-04-11T21:13:23.952Z,99987.08
2023-04-11T21:16:01.761Z,99986.02
2023-04-11T21:18:40.046Z,99979.82
2023-04-11T21:21:19.285Z,99979.96
2023-04-11T21:23:49.616Z,99984.08
2023-04-11T21:26:29.000Z,99989.58
2023-04-11T21:29:02.491Z,99990.30
2023-04-11T21:31:33.325Z,99991.20
2023-04-11T21:34:08.374Z,99992.12
2023-04-11T21:36:46.745Z,99992.97
2023-04-11T21:39:22.352Z,99992.87
2023-04-11T21:42:01.588Z,99993.96
2023-04-11T21:44:39.524Z,99994.45
2023-04-11T21:47:20.076Z,99990.41
2023-04-11T21:49:50.622Z,99989.22
2023-04-11T21:52:31.378Z,99991.78
2023-04-11T21:55:12.664Z,99988.12
2023-04-11T21:57:51.332Z,99984.03
2023-04-11T22:00:30.089Z,99982.29
2023-04-11T22:03:12.339Z,99986.21
2023-04-11T22:05:50.509Z,99982.65
2023-04-11T22:08:29.738Z,99982.89
2023-04-11T22:11:19.373Z,99982.12
2023-04-11T22:13:58.786Z,99979.48
2023-04-11T22:16:37.685Z,99975.83
2023-04-11T22:19:21.063Z,99970.84
2023-04-11T22:22:03.668Z,99967.46
2023-04-11T22:24:41.947Z,99971.60
2023-04-11T22:27:20.452Z,99978.05
2023-04-11T22:30:02.653Z,99969.59
2023-04-11T22:32:41.461Z,99969.92
2023-04-11T22:35:20.340Z,99975.86
2023-04-11T22:38:01.773Z,99976.03
2023-04-11T22:40:41.532Z,99972.13
2023-04-11T22:43:20.054Z,99974.88
2023-04-11T22:46:00.736Z,99971.87
2023-04-11T22:48:42.382Z,99970.41
2023-04-11T22:51:22.315Z,99971.02
2023-04-11T22:54:01.293Z,99968.21
2023-04-11T22:56:39.401Z,99968.40
2023-04-11T22:59:17.621Z,99972.83
2023-04-11T23:01:55.897Z,99966.25
2023-04-11T23:04:36.846Z,99965.67
2023-04-11T23:07:17.231Z,99957.39
2023-04-11T23:09:54.854Z,99956.71
2023-04-11T23:12:33.312Z,99953.02
2023-04-11T23:15:04.858Z,99954.11
2023-04-11T23:17:44.077Z,99956.86
2023-04-11T23:20:16.703Z,99956.48
2023-04-11T23:22:51.196Z,99954.08
2023-04-11T23:25:29.485Z,99958.39
2023-04-11T23:28:08.920Z,99962.63
2023-04-11T23:30:46.988Z,99963.20
2023-04-11T23:33:25.988Z,99966.09
2023-04-11T23:36:04.032Z,99968.25
2023-04-11T23:38:42.242Z,99971.87
2023-04-11T23:41:20.717Z,99970.38
2023-04-11T23:44:00.010Z,99967.88
2023-04-11T23:46:39.065Z,99960.45
2023-04-11T23:49:16.818Z,99961.05
2023-04-11T23:51:54.930Z,99954.66
2023-04-11T23:54:33.119Z,99951.77
2023-04-11T23:57:12.737Z,99942.58
2023-04-11T23:59:50.947Z,99952.36
